sensor_id;sensor_type;location;lat;lon;timestamp;P1;durP1;ratioP1;P2;durP2;ratioP2
45033;SDS011;30771;47.988;-4.186;2023-11-18T00:00:10;27.77;;;3.80;;
45033;SDS011;30771;47.988;-4.186;2023-11-18T00:02:37;33.85;;;4.57;;
45033;SDS011;30771;47.988;-4.186;2023-11-18T00:05:05;16.40;;;3.35;;
45033;SDS011;30771;47.988;-4.186;2023-11-18T00:07:32;21.13;;;3.95;;
45033;SDS011;30771;47.988;-4.186;2023-11-18T00:09:58;21.15;;;3.60;;
45033;SDS011;30771;47.988;-4.186;2023-11-18T00:12:25;31.10;;;4.03;;
45033;SDS011;30771;47.988;-4.186;2023-11-18T00:14:52;29.80;;;4.28;;
45033;SDS011;30771;47.988;-4.186;2023-11-18T00:17:18;37.33;;;5.00;;
45033;SDS011;30771;47.988;-4.186;2023-11-18T00:19:45;35.45;;;5.40;;
45033;SDS011;30771;47.988;-4.186;2023-11-18T00:22:12;36.33;;;5.45;;
45033;SDS011;30771;47.988;-4.186;2023-11-18T00:24:38;32.67;;;5.95;;
45033;SDS011;30771;47.988;-4.186;2023-11-18T00:27:05;45.63;;;7.15;;
45033;SDS011;30771;47.988;-4.186;2023-11-18T00:29:32;47.90;;;7.72;;
45033;SDS011;30771;47.988;-4.186;2023-11-18T00:31:59;46.83;;;6.18;;
45033;SDS011;30771;47.988;-4.186;2023-11-18T00:34:27;49.33;;;7.82;;
45033;SDS011;30771;47.988;-4.186;2023-11-18T00:36:53;55.92;;;8.07;;
45033;SDS011;30771;47.988;-4.186;2023-11-18T00:39:20;43.13;;;7.10;;
45033;SDS011;30771;47.988;-4.186;2023-11-18T00:41:46;42.90;;;7.50;;
45033;SDS011;30771;47.988;-4.186;2023-11-18T00:44:13;32.55;;;6.28;;
45033;SDS011;30771;47.988;-4.186;2023-11-18T00:46:40;35.60;;;6.72;;
45033;SDS011;30771;47.988;-4.186;2023-11-18T00:49:06;32.13;;;7.22;;
45033;SDS011;30771;47.988;-4.186;2023-11-18T00:51:33;38.35;;;6.63;;
45033;SDS011;30771;47.988;-4.186;2023-11-18T00:54:00;22.35;;;4.72;;
45033;SDS011;30771;47.988;-4.186;2023-11-18T00:56:26;25.00;;;5.30;;
45033;SDS011;30771;47.988;-4.186;2023-11-18T00:58:53;20.17;;;4.68;;
45033;SDS011;30771;47.988;-4.186;2023-11-18T01:01:20;14.98;;;3.03;;
45033;SDS011;30771;47.988;-4.186;2023-11-18T01:03:47;15.93;;;2.90;;
45033;SDS011;30771;47.988;-4.186;2023-11-18T01:06:13;11.63;;;3.13;;
45033;SDS011;30771;47.988;-4.186;2023-11-18T01:08:40;9.82;;;2.88;;
45033;SDS011;30771;47.988;-4.186;2023-11-18T01:11:09;11.63;;;2.30;;
45033;SDS011;30771;47.988;-4.186;2023-11-18T01:13:36;9.55;;;2.70;;
45033;SDS011;30771;47.988;-4.186;2023-11-18T01:16:03;11.32;;;3.10;;
45033;SDS011;30771;47.988;-4.186;2023-11-18T01:18:30;16.52;;;3.60;;
45033;SDS011;30771;47.988;-4.186;2023-11-18T01:20:56;16.17;;;3.63;;
45033;SDS011;30771;47.988;-4.186;2023-11-18T01:23:23;19.83;;;4.32;;
45033;SDS011;30771;47.988;-4.186;2023-11-18T01:25:50;16.25;;;4.03;;
45033;SDS011;30771;47.988;-4.186;2023-11-18T01:28:16;22.80;;;5.75;;
45033;SDS011;30771;47.988;-4.186;2023-11-18T01:30:43;32.30;;;6.50;;
45033;SDS011;30771;47.988;-4.186;2023-11-18T01:33:10;25.35;;;6.90;;
45033;SDS011;30771;47.988;-4.186;2023-11-18T01:35:37;33.10;;;7.82;;
45033;SDS011;30771;47.988;-4.186;2023-11-18T01:38:03;34.95;;;8.90;;
45033;SDS011;30771;47.988;-4.186;2023-11-18T01:40:30;49.08;;;9.50;;
45033;SDS011;30771;47.988;-4.186;2023-11-18T01:42:57;57.88;;;10.95;;
45033;SDS011;30771;47.988;-4.186;2023-11-18T01:45:23;61.65;;;12.02;;
45033;SDS011;30771;47.988;-4.186;2023-11-18T01:47:50;56.08;;;11.57;;
45033;SDS011;30771;47.988;-4.186;2023-11-18T01:50:17;88.80;;;13.60;;
45033;SDS011;30771;47.988;-4.186;2023-11-18T01:52:44;72.40;;;13.45;;
45033;SDS011;30771;47.988;-4.186;2023-11-18T01:55:12;74.22;;;14.27;;
45033;SDS011;30771;47.988;-4.186;2023-11-18T01:57:39;86.68;;;15.57;;
45033;SDS011;30771;47.988;-4.186;2023-11-18T02:00:06;77.30;;;15.23;;
45033;SDS011;30771;47.988;-4.186;2023-11-18T02:02:34;63.88;;;14.02;;
45033;SDS011;30771;47.988;-4.186;2023-11-18T02:05:00;83.40;;;14.30;;
45033;SDS011;30771;47.988;-4.186;2023-11-18T02:07:27;62.13;;;13.65;;
45033;SDS011;30771;47.988;-4.186;2023-11-18T02:09:55;81.95;;;14.75;;
45033;SDS011;30771;47.988;-4.186;2023-11-18T02:15:02;62.30;;;14.82;;
45033;SDS011;30771;47.988;-4.186;2023-11-18T02:17:31;74.20;;;13.95;;
45033;SDS011;30771;47.988;-4.186;2023-11-18T02:22:27;73.85;;;15.18;;
45033;SDS011;30771;47.988;-4.186;2023-11-18T02:24:54;101.28;;;15.35;;
45033;SDS011;30771;47.988;-4.186;2023-11-18T02:27:21;77.05;;;14.73;;
45033;SDS011;30771;47.988;-4.186;2023-11-18T02:29:47;79.75;;;17.70;;
45033;SDS011;30771;47.988;-4.186;2023-11-18T02:32:31;80.78;;;15.68;;
45033;SDS011;30771;47.988;-4.186;2023-11-18T02:35:05;86.63;;;16.02;;
45033;SDS011;30771;47.988;-4.186;2023-11-18T02:37:40;91.40;;;16.95;;
45033;SDS011;30771;47.988;-4.186;2023-11-18T02:40:11;79.13;;;16.38;;
45033;SDS011;30771;47.988;-4.186;2023-11-18T02:42:41;88.40;;;17.25;;
45033;SDS011;30771;47.988;-4.186;2023-11-18T02:45:10;92.18;;;15.82;;
45033;SDS011;30771;47.988;-4.186;2023-11-18T02:47:39;85.03;;;15.73;;
45033;SDS011;30771;47.988;-4.186;2023-11-18T02:50:05;89.93;;;17.77;;
45033;SDS011;30771;47.988;-4.186;2023-11-18T02:52:32;104.00;;;17.17;;
45033;SDS011;30771;47.988;-4.186;2023-11-18T02:54:59;94.90;;;16.65;;
45033;SDS011;30771;47.988;-4.186;2023-11-18T02:57:26;89.43;;;16.00;;
45033;SDS011;30771;47.988;-4.186;2023-11-18T02:59:52;95.45;;;18.08;;
45033;SDS011;30771;47.988;-4.186;2023-11-18T03:02:19;104.82;;;17.70;;
45033;SDS011;30771;47.988;-4.186;2023-11-18T03:04:45;99.40;;;16.13;;
45033;SDS011;30771;47.988;-4.186;2023-11-18T03:07:12;86.95;;;17.98;;
45033;SDS011;30771;47.988;-4.186;2023-11-18T03:09:39;106.45;;;16.20;;
45033;SDS011;30771;47.988;-4.186;2023-11-18T03:12:06;107.95;;;16.27;;
45033;SDS011;30771;47.988;-4.186;2023-11-18T03:14:33;136.40;;;18.70;;
45033;SDS011;30771;47.988;-4.186;2023-11-18T03:17:01;147.02;;;16.67;;
45033;SDS011;30771;47.988;-4.186;2023-11-18T03:19:28;92.57;;;16.08;;
45033;SDS011;30771;47.988;-4.186;2023-11-18T03:21:54;100.28;;;15.98;;
45033;SDS011;30771;47.988;-4.186;2023-11-18T03:24:21;111.57;;;14.38;;
45033;SDS011;30771;47.988;-4.186;2023-11-18T03:26:48;113.35;;;15.57;;
45033;SDS011;30771;47.988;-4.186;2023-11-18T03:29:14;73.13;;;14.60;;
45033;SDS011;30771;47.988;-4.186;2023-11-18T03:31:41;106.32;;;14.50;;
45033;SDS011;30771;47.988;-4.186;2023-11-18T03:34:07;101.38;;;16.05;;
45033;SDS011;30771;47.988;-4.186;2023-11-18T03:36:34;82.28;;;14.75;;
45033;SDS011;30771;47.988;-4.186;2023-11-18T03:39:00;94.40;;;16.38;;
45033;SDS011;30771;47.988;-4.186;2023-11-18T03:41:27;86.45;;;12.80;;
45033;SDS011;30771;47.988;-4.186;2023-11-18T03:43:54;96.30;;;13.00;;
45033;SDS011;30771;47.988;-4.186;2023-11-18T03:46:20;117.45;;;14.07;;
45033;SDS011;30771;47.988;-4.186;2023-11-18T03:48:47;139.35;;;13.98;;
45033;SDS011;30771;47.988;-4.186;2023-11-18T03:51:14;157.13;;;13.68;;
45033;SDS011;30771;47.988;-4.186;2023-11-18T03:53:40;112.05;;;12.93;;
45033;SDS011;30771;47.988;-4.186;2023-11-18T03:56:07;120.70;;;13.32;;
45033;SDS011;30771;47.988;-4.186;2023-11-18T03:58:34;130.40;;;15.30;;
45033;SDS011;30771;47.988;-4.186;2023-11-18T04:01:01;162.35;;;14.82;;
45033;SDS011;30771;47.988;-4.186;2023-11-18T04:03:28;216.57;;;15.45;;
45033;SDS011;30771;47.988;-4.186;2023-11-18T04:05:54;160.55;;;14.38;;
45033;SDS011;30771;47.988;-4.186;2023-11-18T04:08:21;126.75;;;13.90;;
45033;SDS011;30771;47.988;-4.186;2023-11-18T04:10:48;196.20;;;13.65;;
45033;SDS011;30771;47.988;-4.186;2023-11-18T04:13:14;123.40;;;11.95;;
45033;SDS011;30771;47.988;-4.186;2023-11-18T04:15:41;102.93;;;12.20;;
45033;SDS011;30771;47.988;-4.186;2023-11-18T04:18:07;141.40;;;12.10;;
45033;SDS011;30771;47.988;-4.186;2023-11-18T04:20:34;98.15;;;10.02;;
45033;SDS011;30771;47.988;-4.186;2023-11-18T04:23:01;85.28;;;10.60;;
45033;SDS011;30771;47.988;-4.186;2023-11-18T04:25:27;62.38;;;10.45;;
45033;SDS011;30771;47.988;-4.186;2023-11-18T04:27:54;66.30;;;9.73;;
45033;SDS011;30771;47.988;-4.186;2023-11-18T04:30:20;56.25;;;8.20;;
45033;SDS011;30771;47.988;-4.186;2023-11-18T04:32:47;59.20;;;7.45;;
45033;SDS011;30771;47.988;-4.186;2023-11-18T04:35:14;49.05;;;6.80;;
45033;SDS011;30771;47.988;-4.186;2023-11-18T04:37:40;46.42;;;6.15;;
45033;SDS011;30771;47.988;-4.186;2023-11-18T04:40:07;50.97;;;7.15;;
45033;SDS011;30771;47.988;-4.186;2023-11-18T04:42:34;55.75;;;7.93;;
45033;SDS011;30771;47.988;-4.186;2023-11-18T04:45:01;59.83;;;8.48;;
45033;SDS011;30771;47.988;-4.186;2023-11-18T04:47:28;52.28;;;8.50;;
45033;SDS011;30771;47.988;-4.186;2023-11-18T04:49:55;65.90;;;7.38;;
45033;SDS011;30771;47.988;-4.186;2023-11-18T04:52:21;63.30;;;8.90;;
45033;SDS011;30771;47.988;-4.186;2023-11-18T04:54:48;60.85;;;8.00;;
45033;SDS011;30771;47.988;-4.186;2023-11-18T04:57:14;59.00;;;7.32;;
45033;SDS011;30771;47.988;-4.186;2023-11-18T04:59:42;75.35;;;8.88;;
45033;SDS011;30771;47.988;-4.186;2023-11-18T05:02:08;51.05;;;8.75;;
45033;SDS011;30771;47.988;-4.186;2023-11-18T05:04:35;69.68;;;9.77;;
45033;SDS011;30771;47.988;-4.186;2023-11-18T05:07:02;92.72;;;10.40;;
45033;SDS011;30771;47.988;-4.186;2023-11-18T05:09:29;79.70;;;10.73;;
45033;SDS011;30771;47.988;-4.186;2023-11-18T05:11:57;59.78;;;8.73;;
45033;SDS011;30771;47.988;-4.186;2023-11-18T05:14:24;82.63;;;9.95;;
45033;SDS011;30771;47.988;-4.186;2023-11-18T05:16:50;75.70;;;9.70;;
45033;SDS011;30771;47.988;-4.186;2023-11-18T05:19:17;259.63;;;12.77;;
45033;SDS011;30771;47.988;-4.186;2023-11-18T05:21:44;232.35;;;12.55;;
45033;SDS011;30771;47.988;-4.186;2023-11-18T05:24:10;199.45;;;11.90;;
45033;SDS011;30771;47.988;-4.186;2023-11-18T05:26:37;174.07;;;9.68;;
45033;SDS011;30771;47.988;-4.186;2023-11-18T05:29:03;139.95;;;9.55;;
45033;SDS011;30771;47.988;-4.186;2023-11-18T05:31:30;228.43;;;13.05;;
45033;SDS011;30771;47.988;-4.186;2023-11-18T05:33:56;67.40;;;7.78;;
45033;SDS011;30771;47.988;-4.186;2023-11-18T05:36:23;49.10;;;7.72;;
45033;SDS011;30771;47.988;-4.186;2023-11-18T05:38:50;77.72;;;8.13;;
45033;SDS011;30771;47.988;-4.186;2023-11-18T05:41:16;65.13;;;8.93;;
45033;SDS011;30771;47.988;-4.186;2023-11-18T05:43:43;108.03;;;10.27;;
45033;SDS011;30771;47.988;-4.186;2023-11-18T05:46:09;65.50;;;9.95;;
45033;SDS011;30771;47.988;-4.186;2023-11-18T05:48:36;80.00;;;10.10;;
45033;SDS011;30771;47.988;-4.186;2023-11-18T05:51:09;70.47;;;10.40;;
45033;SDS011;30771;47.988;-4.186;2023-11-18T05:53:42;62.13;;;11.38;;
45033;SDS011;30771;47.988;-4.186;2023-11-18T05:56:09;68.85;;;10.95;;
45033;SDS011;30771;47.988;-4.186;2023-11-18T05:58:36;60.95;;;10.57;;
45033;SDS011;30771;47.988;-4.186;2023-11-18T06:01:03;68.38;;;10.13;;
45033;SDS011;30771;47.988;-4.186;2023-11-18T06:03:29;61.40;;;11.15;;
45033;SDS011;30771;47.988;-4.186;2023-11-18T06:05:56;68.13;;;11.02;;
45033;SDS011;30771;47.988;-4.186;2023-11-18T06:08:23;78.03;;;11.98;;
45033;SDS011;30771;47.988;-4.186;2023-11-18T06:10:50;73.10;;;12.13;;
45033;SDS011;30771;47.988;-4.186;2023-11-18T06:13:17;76.55;;;11.98;;
45033;SDS011;30771;47.988;-4.186;2023-11-18T06:15:43;78.63;;;10.95;;
45033;SDS011;30771;47.988;-4.186;2023-11-18T06:18:10;67.10;;;10.73;;
45033;SDS011;30771;47.988;-4.186;2023-11-18T06:20:37;70.82;;;11.48;;
45033;SDS011;30771;47.988;-4.186;2023-11-18T06:23:03;86.28;;;12.10;;
45033;SDS011;30771;47.988;-4.186;2023-11-18T06:25:30;80.63;;;12.98;;
45033;SDS011;30771;47.988;-4.186;2023-11-18T06:27:56;77.13;;;12.00;;
45033;SDS011;30771;47.988;-4.186;2023-11-18T06:30:23;73.35;;;11.63;;
45033;SDS011;30771;47.988;-4.186;2023-11-18T06:32:50;57.42;;;11.38;;
45033;SDS011;30771;47.988;-4.186;2023-11-18T06:35:16;80.60;;;12.70;;
45033;SDS011;30771;47.988;-4.186;2023-11-18T06:37:43;91.18;;;12.52;;
45033;SDS011;30771;47.988;-4.186;2023-11-18T06:40:10;68.80;;;11.88;;
45033;SDS011;30771;47.988;-4.186;2023-11-18T06:42:36;82.07;;;13.82;;
45033;SDS011;30771;47.988;-4.186;2023-11-18T06:45:03;68.25;;;11.00;;
45033;SDS011;30771;47.988;-4.186;2023-11-18T06:47:30;74.70;;;13.00;;
45033;SDS011;30771;47.988;-4.186;2023-11-18T06:49:57;85.47;;;11.95;;
45033;SDS011;30771;47.988;-4.186;2023-11-18T06:52:23;97.82;;;15.57;;
45033;SDS011;30771;47.988;-4.186;2023-11-18T06:54:50;92.43;;;13.40;;
45033;SDS011;30771;47.988;-4.186;2023-11-18T06:57:17;85.70;;;17.00;;
45033;SDS011;30771;47.988;-4.186;2023-11-18T06:59:43;94.57;;;19.88;;
45033;SDS011;30771;47.988;-4.186;2023-11-18T07:02:10;108.38;;;17.63;;
45033;SDS011;30771;47.988;-4.186;2023-11-18T07:04:37;89.50;;;15.63;;
45033;SDS011;30771;47.988;-4.186;2023-11-18T07:07:03;99.47;;;17.85;;
45033;SDS011;30771;47.988;-4.186;2023-11-18T07:09:30;106.13;;;15.15;;
45033;SDS011;30771;47.988;-4.186;2023-11-18T07:11:56;95.53;;;15.80;;
45033;SDS011;30771;47.988;-4.186;2023-11-18T07:14:23;107.90;;;16.05;;
45033;SDS011;30771;47.988;-4.186;2023-11-18T07:16:50;103.57;;;17.13;;
45033;SDS011;30771;47.988;-4.186;2023-11-18T07:19:16;106.53;;;16.17;;
45033;SDS011;30771;47.988;-4.186;2023-11-18T07:21:43;93.80;;;17.83;;
45033;SDS011;30771;47.988;-4.186;2023-11-18T07:24:10;106.20;;;18.40;;
45033;SDS011;30771;47.988;-4.186;2023-11-18T07:26:36;85.43;;;17.85;;
45033;SDS011;30771;47.988;-4.186;2023-11-18T07:29:03;119.40;;;18.50;;
45033;SDS011;30771;47.988;-4.186;2023-11-18T07:31:29;94.57;;;17.55;;
45033;SDS011;30771;47.988;-4.186;2023-11-18T07:33:56;98.55;;;17.40;;
45033;SDS011;30771;47.988;-4.186;2023-11-18T07:36:23;105.07;;;15.93;;
45033;SDS011;30771;47.988;-4.186;2023-11-18T07:38:49;88.15;;;15.73;;
45033;SDS011;30771;47.988;-4.186;2023-11-18T07:41:16;94.25;;;17.10;;
45033;SDS011;30771;47.988;-4.186;2023-11-18T07:43:44;85.70;;;15.63;;
45033;SDS011;30771;47.988;-4.186;2023-11-18T07:46:10;74.90;;;13.15;;
45033;SDS011;30771;47.988;-4.186;2023-11-18T07:48:37;82.65;;;13.50;;
45033;SDS011;30771;47.988;-4.186;2023-11-18T07:51:04;89.10;;;13.88;;
45033;SDS011;30771;47.988;-4.186;2023-11-18T07:53:31;86.90;;;13.85;;
45033;SDS011;30771;47.988;-4.186;2023-11-18T07:55:57;96.53;;;15.02;;
45033;SDS011;30771;47.988;-4.186;2023-11-18T07:58:24;90.95;;;14.27;;
45033;SDS011;30771;47.988;-4.186;2023-11-18T08:00:51;93.60;;;15.52;;
45033;SDS011;30771;47.988;-4.186;2023-11-18T08:03:17;97.30;;;14.07;;
45033;SDS011;30771;47.988;-4.186;2023-11-18T08:05:44;93.47;;;14.30;;
45033;SDS011;30771;47.988;-4.186;2023-11-18T08:08:12;108.90;;;14.25;;
45033;SDS011;30771;47.988;-4.186;2023-11-18T08:10:40;97.60;;;16.33;;
45033;SDS011;30771;47.988;-4.186;2023-11-18T08:13:08;82.68;;;13.90;;
45033;SDS011;30771;47.988;-4.186;2023-11-18T08:15:37;99.88;;;14.60;;
45033;SDS011;30771;47.988;-4.186;2023-11-18T08:18:05;91.53;;;14.00;;
45033;SDS011;30771;47.988;-4.186;2023-11-18T08:20:32;88.47;;;14.77;;
45033;SDS011;30771;47.988;-4.186;2023-11-18T08:22:59;83.05;;;13.80;;
45033;SDS011;30771;47.988;-4.186;2023-11-18T08:25:25;88.90;;;14.38;;
45033;SDS011;30771;47.988;-4.186;2023-11-18T08:27:52;87.32;;;14.32;;
45033;SDS011;30771;47.988;-4.186;2023-11-18T08:30:19;100.38;;;13.48;;
45033;SDS011;30771;47.988;-4.186;2023-11-18T08:32:46;90.35;;;12.82;;
45033;SDS011;30771;47.988;-4.186;2023-11-18T08:35:13;91.30;;;13.35;;
45033;SDS011;30771;47.988;-4.186;2023-11-18T08:37:41;89.63;;;14.18;;
45033;SDS011;30771;47.988;-4.186;2023-11-18T08:40:08;87.03;;;13.43;;
45033;SDS011;30771;47.988;-4.186;2023-11-18T08:42:35;93.25;;;13.45;;
45033;SDS011;30771;47.988;-4.186;2023-11-18T08:45:02;95.80;;;13.77;;
45033;SDS011;30771;47.988;-4.186;2023-11-18T08:47:31;104.85;;;14.40;;
45033;SDS011;30771;47.988;-4.186;2023-11-18T08:49:58;87.63;;;13.77;;
45033;SDS011;30771;47.988;-4.186;2023-11-18T08:52:24;104.22;;;15.05;;
45033;SDS011;30771;47.988;-4.186;2023-11-18T08:54:51;101.30;;;15.38;;
45033;SDS011;30771;47.988;-4.186;2023-11-18T08:57:18;88.05;;;13.88;;
45033;SDS011;30771;47.988;-4.186;2023-11-18T08:59:44;87.38;;;13.60;;
45033;SDS011;30771;47.988;-4.186;2023-11-18T09:02:11;82.97;;;13.63;;
45033;SDS011;30771;47.988;-4.186;2023-11-18T09:04:38;90.72;;;15.07;;
45033;SDS011;30771;47.988;-4.186;2023-11-18T09:07:05;99.63;;;13.65;;
45033;SDS011;30771;47.988;-4.186;2023-11-18T09:09:32;82.85;;;13.50;;
45033;SDS011;30771;47.988;-4.186;2023-11-18T09:11:58;86.13;;;14.05;;
45033;SDS011;30771;47.988;-4.186;2023-11-18T09:14:25;81.65;;;13.73;;
45033;SDS011;30771;47.988;-4.186;2023-11-18T09:16:52;84.13;;;13.85;;
45033;SDS011;30771;47.988;-4.186;2023-11-18T09:19:20;95.55;;;14.45;;
45033;SDS011;30771;47.988;-4.186;2023-11-18T09:21:47;100.90;;;15.20;;
45033;SDS011;30771;47.988;-4.186;2023-11-18T09:24:14;84.15;;;13.18;;
45033;SDS011;30771;47.988;-4.186;2023-11-18T09:26:41;91.93;;;13.13;;
45033;SDS011;30771;47.988;-4.186;2023-11-18T09:29:08;98.32;;;16.83;;
45033;SDS011;30771;47.988;-4.186;2023-11-18T09:31:35;101.93;;;16.80;;
45033;SDS011;30771;47.988;-4.186;2023-11-18T09:34:01;84.53;;;12.38;;
45033;SDS011;30771;47.988;-4.186;2023-11-18T09:36:28;86.80;;;13.20;;
45033;SDS011;30771;47.988;-4.186;2023-11-18T09:38:55;95.10;;;13.73;;
45033;SDS011;30771;47.988;-4.186;2023-11-18T09:41:22;92.55;;;13.43;;
45033;SDS011;30771;47.988;-4.186;2023-11-18T09:43:49;95.85;;;14.02;;
45033;SDS011;30771;47.988;-4.186;2023-11-18T09:46:16;88.80;;;14.50;;
45033;SDS011;30771;47.988;-4.186;2023-11-18T09:48:49;112.85;;;27.60;;
45033;SDS011;30771;47.988;-4.186;2023-11-18T09:53:46;92.28;;;15.40;;
45033;SDS011;30771;47.988;-4.186;2023-11-18T09:56:22;101.30;;;12.68;;
45033;SDS011;30771;47.988;-4.186;2023-11-18T09:59:01;85.95;;;20.90;;
45033;SDS011;30771;47.988;-4.186;2023-11-18T10:01:38;89.00;;;14.02;;
45033;SDS011;30771;47.988;-4.186;2023-11-18T10:04:06;81.30;;;12.70;;
45033;SDS011;30771;47.988;-4.186;2023-11-18T10:06:36;55.90;;;9.57;;
45033;SDS011;30771;47.988;-4.186;2023-11-18T10:09:03;56.05;;;9.88;;
45033;SDS011;30771;47.988;-4.186;2023-11-18T10:11:29;67.88;;;13.40;;
45033;SDS011;30771;47.988;-4.186;2023-11-18T10:13:56;61.70;;;9.77;;
45033;SDS011;30771;47.988;-4.186;2023-11-18T10:16:23;61.80;;;24.73;;
45033;SDS011;30771;47.988;-4.186;2023-11-18T10:18:49;76.65;;;13.45;;
45033;SDS011;30771;47.988;-4.186;2023-11-18T10:21:16;94.15;;;19.25;;
45033;SDS011;30771;47.988;-4.186;2023-11-18T10:23:51;89.55;;;15.45;;
45033;SDS011;30771;47.988;-4.186;2023-11-18T10:26:25;93.22;;;12.60;;
45033;SDS011;30771;47.988;-4.186;2023-11-18T10:28:52;96.70;;;16.13;;
45033;SDS011;30771;47.988;-4.186;2023-11-18T10:31:18;76.20;;;13.60;;
45033;SDS011;30771;47.988;-4.186;2023-11-18T10:33:45;79.72;;;11.27;;
45033;SDS011;30771;47.988;-4.186;2023-11-18T10:36:19;83.32;;;11.65;;
45033;SDS011;30771;47.988;-4.186;2023-11-18T10:38:47;86.20;;;15.07;;
45033;SDS011;30771;47.988;-4.186;2023-11-18T10:41:14;95.07;;;12.27;;
45033;SDS011;30771;47.988;-4.186;2023-11-18T10:43:42;71.57;;;11.32;;
45033;SDS011;30771;47.988;-4.186;2023-11-18T10:46:09;70.15;;;10.80;;
45033;SDS011;30771;47.988;-4.186;2023-11-18T10:51:09;53.70;;;7.97;;
45033;SDS011;30771;47.988;-4.186;2023-11-18T10:53:36;43.83;;;7.45;;
45033;SDS011;30771;47.988;-4.186;2023-11-18T10:56:04;53.80;;;7.57;;
45033;SDS011;30771;47.988;-4.186;2023-11-18T11:01:01;59.67;;;10.30;;
45033;SDS011;30771;47.988;-4.186;2023-11-18T11:03:28;61.78;;;8.88;;
45033;SDS011;30771;47.988;-4.186;2023-11-18T11:05:55;62.40;;;10.45;;
45033;SDS011;30771;47.988;-4.186;2023-11-18T11:08:22;71.32;;;11.20;;
45033;SDS011;30771;47.988;-4.186;2023-11-18T11:11:01;58.63;;;10.18;;
45033;SDS011;30771;47.988;-4.186;2023-11-18T11:13:30;81.40;;;11.98;;
45033;SDS011;30771;47.988;-4.186;2023-11-18T11:15:58;97.22;;;13.75;;
45033;SDS011;30771;47.988;-4.186;2023-11-18T11:18:26;94.20;;;14.02;;
45033;SDS011;30771;47.988;-4.186;2023-11-18T11:21:19;103.32;;;12.98;;
45033;SDS011;30771;47.988;-4.186;2023-11-18T11:29:07;91.18;;;13.35;;
45033;SDS011;30771;47.988;-4.186;2023-11-18T11:31:48;84.30;;;13.90;;
45033;SDS011;30771;47.988;-4.186;2023-11-18T11:34:22;90.80;;;12.68;;
45033;SDS011;30771;47.988;-4.186;2023-11-18T11:36:53;96.13;;;14.98;;
45033;SDS011;30771;47.988;-4.186;2023-11-18T11:39:21;94.82;;;14.85;;
45033;SDS011;30771;47.988;-4.186;2023-11-18T11:41:50;88.22;;;15.77;;
45033;SDS011;30771;47.988;-4.186;2023-11-18T11:44:18;87.38;;;15.07;;
45033;SDS011;30771;47.988;-4.186;2023-11-18T11:46:45;98.85;;;12.98;;
45033;SDS011;30771;47.988;-4.186;2023-11-18T11:49:13;85.32;;;13.50;;
45033;SDS011;30771;47.988;-4.186;2023-11-18T11:51:43;82.00;;;12.95;;
45033;SDS011;30771;47.988;-4.186;2023-11-18T11:54:15;87.45;;;11.88;;
45033;SDS011;30771;47.988;-4.186;2023-11-18T11:56:45;81.30;;;13.07;;
45033;SDS011;30771;47.988;-4.186;2023-11-18T11:59:16;90.40;;;13.63;;
45033;SDS011;30771;47.988;-4.186;2023-11-18T12:01:43;74.05;;;11.68;;
45033;SDS011;30771;47.988;-4.186;2023-11-18T12:04:10;86.57;;;11.07;;
45033;SDS011;30771;47.988;-4.186;2023-11-18T12:06:43;64.43;;;10.35;;
45033;SDS011;30771;47.988;-4.186;2023-11-18T12:09:10;80.82;;;11.77;;
45033;SDS011;30771;47.988;-4.186;2023-11-18T12:11:39;79.18;;;11.60;;
45033;SDS011;30771;47.988;-4.186;2023-11-18T12:14:07;50.25;;;9.05;;
45033;SDS011;30771;47.988;-4.186;2023-11-18T12:19:32;55.30;;;7.95;;
45033;SDS011;30771;47.988;-4.186;2023-11-18T12:22:00;40.35;;;9.50;;
45033;SDS011;30771;47.988;-4.186;2023-11-18T12:24:26;43.60;;;8.75;;
45033;SDS011;30771;47.988;-4.186;2023-11-18T12:26:53;53.28;;;10.18;;
45033;SDS011;30771;47.988;-4.186;2023-11-18T12:29:32;47.40;;;9.20;;
45033;SDS011;30771;47.988;-4.186;2023-11-18T12:31:59;69.10;;;13.95;;
45033;SDS011;30771;47.988;-4.186;2023-11-18T12:34:49;62.28;;;11.30;;
45033;SDS011;30771;47.988;-4.186;2023-11-18T12:42:48;88.53;;;14.82;;
45033;SDS011;30771;47.988;-4.186;2023-11-18T12:48:37;75.63;;;13.77;;
45033;SDS011;30771;47.988;-4.186;2023-11-18T12:51:10;77.68;;;13.10;;
45033;SDS011;30771;47.988;-4.186;2023-11-18T12:53:37;74.20;;;13.20;;
45033;SDS011;30771;47.988;-4.186;2023-11-18T12:56:03;95.55;;;15.23;;
45033;SDS011;30771;47.988;-4.186;2023-11-18T12:58:30;76.00;;;12.82;;
45033;SDS011;30771;47.988;-4.186;2023-11-18T13:00:57;62.40;;;10.82;;
45033;SDS011;30771;47.988;-4.186;2023-11-18T13:03:24;63.53;;;10.38;;
45033;SDS011;30771;47.988;-4.186;2023-11-18T13:05:51;51.28;;;9.02;;
45033;SDS011;30771;47.988;-4.186;2023-11-18T13:08:17;40.97;;;7.05;;
45033;SDS011;30771;47.988;-4.186;2023-11-18T13:10:44;25.42;;;5.75;;
45033;SDS011;30771;47.988;-4.186;2023-11-18T13:13:11;27.42;;;5.90;;
45033;SDS011;30771;47.988;-4.186;2023-11-18T13:15:37;20.00;;;6.20;;
45033;SDS011;30771;47.988;-4.186;2023-11-18T13:18:04;15.50;;;4.28;;
45033;SDS011;30771;47.988;-4.186;2023-11-18T13:20:31;27.80;;;5.10;;
45033;SDS011;30771;47.988;-4.186;2023-11-18T13:22:57;27.33;;;5.35;;
45033;SDS011;30771;47.988;-4.186;2023-11-18T13:25:24;42.80;;;7.20;;
45033;SDS011;30771;47.988;-4.186;2023-11-18T13:27:51;51.22;;;9.70;;
45033;SDS011;30771;47.988;-4.186;2023-11-18T13:30:18;85.53;;;12.63;;
45033;SDS011;30771;47.988;-4.186;2023-11-18T13:32:45;96.10;;;13.07;;
45033;SDS011;30771;47.988;-4.186;2023-11-18T13:35:11;99.15;;;14.52;;
45033;SDS011;30771;47.988;-4.186;2023-11-18T13:37:39;135.40;;;24.38;;
45033;SDS011;30771;47.988;-4.186;2023-11-18T13:40:06;114.15;;;17.00;;
45033;SDS011;30771;47.988;-4.186;2023-11-18T13:42:33;113.78;;;15.20;;
45033;SDS011;30771;47.988;-4.186;2023-11-18T13:45:00;114.28;;;17.77;;
45033;SDS011;30771;47.988;-4.186;2023-11-18T13:47:29;111.68;;;16.73;;
45033;SDS011;30771;47.988;-4.186;2023-11-18T13:49:58;107.70;;;14.93;;
45033;SDS011;30771;47.988;-4.186;2023-11-18T13:52:25;106.05;;;17.60;;
45033;SDS011;30771;47.988;-4.186;2023-11-18T13:54:52;108.38;;;14.85;;
45033;SDS011;30771;47.988;-4.186;2023-11-18T13:57:19;121.45;;;19.00;;
45033;SDS011;30771;47.988;-4.186;2023-11-18T13:59:46;112.72;;;19.10;;
45033;SDS011;30771;47.988;-4.186;2023-11-18T14:02:12;119.50;;;19.13;;
45033;SDS011;30771;47.988;-4.186;2023-11-18T14:04:39;113.07;;;15.18;;
45033;SDS011;30771;47.988;-4.186;2023-11-18T14:07:06;179.23;;;16.52;;
45033;SDS011;30771;47.988;-4.186;2023-11-18T14:09:33;142.88;;;21.85;;
45033;SDS011;30771;47.988;-4.186;2023-11-18T14:12:00;287.90;;;78.82;;
45033;SDS011;30771;47.988;-4.186;2023-11-18T14:14:27;124.18;;;16.17;;
45033;SDS011;30771;47.988;-4.186;2023-11-18T14:16:54;158.30;;;14.02;;
45033;SDS011;30771;47.988;-4.186;2023-11-18T14:19:20;239.98;;;28.13;;
45033;SDS011;30771;47.988;-4.186;2023-11-18T14:21:47;105.35;;;13.50;;
45033;SDS011;30771;47.988;-4.186;2023-11-18T14:24:14;114.38;;;14.45;;
45033;SDS011;30771;47.988;-4.186;2023-11-18T14:26:40;123.28;;;14.63;;
45033;SDS011;30771;47.988;-4.186;2023-11-18T14:29:07;141.88;;;15.45;;
45033;SDS011;30771;47.988;-4.186;2023-11-18T14:31:34;120.97;;;14.10;;
45033;SDS011;30771;47.988;-4.186;2023-11-18T14:34:00;129.98;;;13.90;;
45033;SDS011;30771;47.988;-4.186;2023-11-18T14:36:27;103.28;;;12.35;;
45033;SDS011;30771;47.988;-4.186;2023-11-18T14:38:54;170.52;;;14.85;;